Terminal Aerodrome Forecast
Issued by NWS Charleston, WV

Home | Current Version | Previous Version | Text Only | Print | Product List | Glossary On
Versions: 1 2 3 4 5 6 7 8 9 10 11 12 13 14 15 16 17 18 19 20 21 22 23 24 25 26
000
FTUS41 KRLX 020500 RRA
TAFBKW
TAF
KBKW 020551Z 0206/0306 26007KT 1/4SM FG VV001
      TEMPO 0207/0209 2SM BR OVC003
     FM020900 30008G16KT 2SM -SN BR OVC008
     FM021100 31008G17KT 3SM -SN BR OVC012
     FM021200 31008G19KT P6SM OVC012
     FM021600 32008KT P6SM SCT020=

USA.gov is the U.S. government's official web portal to all federal, state and local government web resources and services.